createdAt,value
2022-08-03T00:00:54.106Z,22.08
2022-08-03T00:01:54.101Z,22.05
2022-08-03T00:02:54.342Z,22.04
2022-08-03T00:03:54.065Z,22.02
2022-08-03T00:04:54.089Z,22.04
2022-08-03T00:06:04.763Z,22.02
2022-08-03T00:06:55.033Z,22.02
2022-08-03T00:07:54.045Z,22.01
2022-08-03T00:08:54.101Z,22.01
2022-08-03T00:09:54.039Z,22.02
2022-08-03T00:10:54.033Z,21.99
2022-08-03T00:11:54.028Z,21.99
2022-08-03T00:12:54.008Z,21.99
2022-08-03T00:13:53.976Z,21.98
2022-08-03T00:14:54.016Z,21.91
2022-08-03T00:15:53.977Z,21.96
2022-08-03T00:16:53.985Z,21.91
2022-08-03T00:17:54.207Z,21.90
2022-08-03T00:18:54.015Z,21.86
2022-08-03T00:19:54.032Z,21.86
2022-08-03T00:20:54.043Z,21.89
2022-08-03T00:21:54.045Z,21.83
2022-08-03T00:22:54.042Z,21.82
2022-08-03T00:23:54.033Z,21.81
2022-08-03T00:24:54.053Z,21.77
2022-08-03T00:25:54.058Z,21.79
2022-08-03T00:26:54.048Z,21.75
2022-08-03T00:27:54.041Z,21.73
2022-08-03T00:28:54.095Z,21.73
2022-08-03T00:29:59.958Z,21.73
2022-08-03T00:30:54.729Z,21.70
2022-08-03T00:32:00.349Z,21.67
2022-08-03T00:32:54.736Z,21.67
2022-08-03T00:33:59.615Z,21.66
2022-08-03T00:34:57.927Z,21.64
2022-08-03T00:35:53.743Z,21.64
2022-08-03T00:36:53.678Z,21.63
2022-08-03T00:37:53.713Z,21.63
2022-08-03T00:38:53.699Z,21.64
2022-08-03T00:39:53.745Z,21.63
2022-08-03T00:40:54.810Z,21.63
2022-08-03T00:41:53.802Z,21.64
2022-08-03T00:42:53.843Z,21.63
2022-08-03T00:43:53.814Z,21.63
2022-08-03T00:44:53.582Z,21.61
2022-08-03T00:45:53.584Z,21.58
2022-08-03T00:46:53.612Z,21.58
2022-08-03T00:47:53.569Z,21.56
2022-08-03T00:48:53.591Z,21.56
2022-08-03T00:49:53.532Z,21.53
2022-08-03T00:50:54.099Z,21.51
2022-08-03T00:51:53.485Z,21.49
2022-08-03T00:52:53.496Z,21.48
2022-08-03T00:53:53.474Z,21.48
2022-08-03T00:54:53.492Z,21.48
2022-08-03T00:55:53.467Z,21.49
2022-08-03T00:56:59.521Z,21.51
2022-08-03T00:57:54.479Z,21.51
2022-08-03T00:58:53.455Z,21.52
2022-08-03T00:59:53.468Z,21.53
2022-08-03T01:00:53.512Z,21.55
2022-08-03T01:01:53.481Z,21.55
2022-08-03T01:02:53.491Z,21.55
2022-08-03T01:03:53.526Z,21.56
2022-08-03T01:04:53.507Z,21.58
2022-08-03T01:05:53.302Z,21.58
2022-08-03T01:06:53.329Z,21.58
2022-08-03T01:07:53.330Z,21.56
2022-08-03T01:08:53.329Z,21.56
2022-08-03T01:09:53.489Z,21.53
2022-08-03T01:10:53.353Z,21.52
2022-08-03T01:11:59.899Z,21.48
2022-08-03T01:12:54.188Z,21.48
2022-08-03T01:14:01.202Z,21.45
2022-08-03T01:14:54.198Z,21.42
2022-08-03T01:15:53.198Z,21.40
2022-08-03T01:16:53.191Z,21.37
2022-08-03T01:17:53.180Z,21.34
2022-08-03T01:18:53.194Z,21.33
2022-08-03T01:19:53.191Z,21.30
2022-08-03T01:20:53.257Z,21.28
2022-08-03T01:21:53.239Z,21.27
2022-08-03T01:22:53.084Z,21.24
2022-08-03T01:23:53.106Z,21.21
2022-08-03T01:24:53.080Z,21.19
2022-08-03T01:25:54.357Z,21.15
2022-08-03T01:26:53.098Z,21.13
2022-08-03T01:27:54.963Z,21.11
2022-08-03T01:28:53.082Z,21.09
2022-08-03T01:29:52.989Z,21.09
2022-08-03T01:30:53.021Z,21.09
2022-08-03T01:32:58.964Z,21.08
2022-08-03T01:33:01.413Z,21.06
2022-08-03T01:33:53.916Z,21.05
2022-08-03T01:34:52.931Z,21.03
2022-08-03T01:35:52.939Z,21.01
2022-08-03T01:36:52.893Z,20.97
2022-08-03T01:37:52.913Z,20.96
2022-08-03T01:38:52.963Z,20.96
2022-08-03T01:39:52.969Z,20.90
2022-08-03T01:40:52.975Z,20.82
2022-08-03T01:41:52.847Z,20.78
2022-08-03T01:42:52.886Z,20.73
2022-08-03T01:44:27.918Z,20.68
2022-08-03T01:44:54.025Z,20.64
2022-08-03T01:45:53.014Z,20.58
2022-08-03T01:46:53.043Z,20.53
2022-08-03T01:47:53.086Z,20.46
2022-08-03T01:48:53.146Z,20.44
2022-08-03T01:49:52.725Z,20.38
2022-08-03T01:50:52.795Z,20.35
2022-08-03T01:52:02.913Z,20.33
2022-08-03T01:52:53.650Z,20.25
2022-08-03T01:53:52.705Z,20.22
2022-08-03T01:54:52.747Z,20.17
2022-08-03T01:55:52.766Z,20.15
2022-08-03T01:56:52.965Z,20.12
2022-08-03T01:58:05.163Z,20.05
2022-08-03T01:58:53.844Z,19.98
2022-08-03T01:59:52.866Z,19.92
2022-08-03T02:00:52.952Z,19.87
2022-08-03T02:02:27.910Z,19.86
2022-08-03T02:02:53.997Z,19.83
2022-08-03T02:04:00.645Z,19.80
2022-08-03T02:04:53.498Z,19.78
2022-08-03T02:06:11.470Z,19.76
2022-08-03T02:07:01.100Z,19.72
2022-08-03T02:07:53.565Z,19.68
2022-08-03T02:08:52.602Z,19.65
2022-08-03T02:09:52.587Z,19.65
2022-08-03T02:10:52.599Z,19.65
2022-08-03T02:11:52.610Z,19.62
2022-08-03T02:12:52.621Z,19.64
2022-08-03T02:13:52.650Z,19.61
2022-08-03T02:14:52.680Z,19.61
2022-08-03T02:15:52.721Z,19.58
2022-08-03T02:16:52.761Z,19.58
2022-08-03T02:17:52.789Z,19.58
2022-08-03T02:18:52.341Z,19.60
2022-08-03T02:19:52.365Z,19.57
2022-08-03T02:20:52.336Z,19.60
2022-08-03T02:21:57.356Z,19.60
2022-08-03T02:22:53.367Z,19.60
2022-08-03T02:23:52.353Z,19.60
2022-08-03T02:24:52.373Z,19.62
2022-08-03T02:25:52.379Z,19.64
2022-08-03T02:26:52.405Z,19.70
2022-08-03T02:27:52.443Z,19.72
2022-08-03T02:28:52.484Z,19.76
2022-08-03T02:29:52.517Z,19.78
2022-08-03T02:30:54.040Z,19.75
2022-08-03T02:31:52.245Z,19.76
2022-08-03T02:32:52.242Z,19.78
2022-08-03T02:33:52.273Z,19.75
2022-08-03T02:34:52.325Z,19.75
2022-08-03T02:35:52.352Z,19.72
2022-08-03T02:36:52.114Z,19.79
2022-08-03T02:37:52.155Z,19.80
2022-08-03T02:38:52.183Z,19.82
2022-08-03T02:39:52.204Z,19.79
2022-08-03T02:40:52.226Z,19.79
2022-08-03T02:41:52.273Z,19.78
2022-08-03T02:42:52.248Z,19.76
2022-08-03T02:44:06.424Z,19.72
2022-08-03T02:44:53.264Z,19.68
2022-08-03T02:45:52.277Z,19.67
2022-08-03T02:46:52.308Z,19.67
2022-08-03T02:47:54.306Z,19.62
2022-08-03T02:48:52.395Z,19.60
2022-08-03T02:49:52.790Z,19.57
2022-08-03T02:50:52.335Z,19.50
2022-08-03T02:51:52.351Z,19.49
2022-08-03T02:52:52.388Z,19.43
2022-08-03T02:53:52.376Z,19.42
2022-08-03T02:54:52.440Z,19.38
2022-08-03T02:55:52.474Z,19.32
2022-08-03T02:56:52.508Z,19.30
2022-08-03T02:57:52.546Z,19.28
2022-08-03T02:58:52.586Z,19.27
2022-08-03T02:59:53.586Z,19.25
2022-08-03T03:00:52.719Z,19.21
2022-08-03T03:01:52.699Z,19.13
2022-08-03T03:02:51.692Z,19.09
2022-08-03T03:03:51.768Z,19.02
2022-08-03T03:05:55.414Z,19.01
2022-08-03T03:05:57.656Z,18.97
2022-08-03T03:06:52.812Z,18.96
2022-08-03T03:07:53.150Z,18.94
2022-08-03T03:08:54.561Z,18.91
2022-08-03T03:09:51.940Z,18.91
2022-08-03T03:10:53.221Z,18.87
2022-08-03T03:11:52.020Z,18.83
2022-08-03T03:12:52.041Z,18.79
2022-08-03T03:13:52.044Z,18.76
2022-08-03T03:14:52.051Z,18.75
2022-08-03T03:15:52.071Z,18.75
2022-08-03T03:16:52.086Z,18.76
2022-08-03T03:17:53.120Z,18.75
2022-08-03T03:18:52.150Z,18.75
2022-08-03T03:19:52.186Z,18.74
2022-08-03T03:20:52.220Z,18.71
2022-08-03T03:21:52.269Z,18.71
2022-08-03T03:22:52.283Z,18.62
2022-08-03T03:23:52.322Z,18.53
2022-08-03T03:24:52.372Z,18.44
2022-08-03T03:25:52.368Z,18.41
2022-08-03T03:26:51.366Z,18.41
2022-08-03T03:27:51.383Z,18.35
2022-08-03T03:28:51.402Z,18.32
2022-08-03T03:29:51.455Z,18.34
2022-08-03T03:30:53.040Z,18.35
2022-08-03T03:31:51.518Z,18.36
2022-08-03T03:32:52.685Z,18.38
2022-08-03T03:33:51.584Z,18.41
2022-08-03T03:34:51.612Z,18.41
2022-08-03T03:35:51.697Z,18.42
2022-08-03T03:36:51.677Z,18.44
2022-08-03T03:37:51.698Z,18.46
2022-08-03T03:38:51.767Z,18.39
2022-08-03T03:39:51.786Z,18.36
2022-08-03T03:40:51.827Z,18.35
2022-08-03T03:41:51.858Z,18.38
2022-08-03T03:42:51.923Z,18.39
2022-08-03T03:43:51.917Z,18.38
2022-08-03T03:44:51.937Z,18.39
2022-08-03T03:45:51.957Z,18.42
2022-08-03T03:46:52.007Z,18.41
2022-08-03T03:47:52.036Z,18.44
2022-08-03T03:48:52.078Z,18.44
2022-08-03T03:49:51.047Z,18.47
2022-08-03T03:50:51.068Z,18.49
2022-08-03T03:51:51.242Z,18.50
2022-08-03T03:52:51.118Z,18.51
2022-08-03T03:53:51.157Z,18.53
2022-08-03T03:54:51.187Z,18.59
2022-08-03T03:55:57.744Z,18.57
2022-08-03T03:56:52.260Z,18.59
2022-08-03T03:57:51.267Z,18.59
2022-08-03T03:58:51.317Z,18.60
2022-08-03T03:59:51.342Z,18.60
2022-08-03T04:00:51.414Z,18.60
2022-08-03T04:01:58.864Z,18.59
2022-08-03T04:02:52.619Z,18.57
2022-08-03T04:03:51.461Z,18.57
2022-08-03T04:04:51.483Z,18.57
2022-08-03T04:05:51.533Z,18.59
2022-08-03T04:06:53.030Z,18.59
2022-08-03T04:07:51.592Z,18.62
2022-08-03T04:08:51.630Z,18.60
2022-08-03T04:09:51.633Z,18.59
2022-08-03T04:10:51.639Z,18.56
2022-08-03T04:11:51.670Z,18.51
2022-08-03T04:12:52.730Z,18.47
2022-08-03T04:13:51.751Z,18.47
2022-08-03T04:14:50.763Z,18.41
2022-08-03T04:15:50.775Z,18.39
2022-08-03T04:16:50.821Z,18.36
2022-08-03T04:17:50.871Z,18.35
2022-08-03T04:18:50.901Z,18.35
2022-08-03T04:19:51.212Z,18.35
2022-08-03T04:20:50.975Z,18.32
2022-08-03T04:21:51.022Z,18.26
2022-08-03T04:22:51.079Z,18.28
2022-08-03T04:23:51.124Z,18.28
2022-08-03T04:24:51.142Z,18.29
2022-08-03T04:25:51.232Z,18.31
2022-08-03T04:26:52.899Z,18.34
2022-08-03T04:28:29.182Z,18.35
2022-08-03T04:28:52.297Z,18.36
2022-08-03T04:29:51.557Z,18.36
2022-08-03T04:30:51.406Z,18.35
2022-08-03T04:31:51.438Z,18.35
2022-08-03T04:32:51.474Z,18.36
2022-08-03T04:33:50.490Z,18.35
2022-08-03T04:34:50.515Z,18.29
2022-08-03T04:36:01.712Z,18.31
2022-08-03T04:36:51.584Z,18.29
2022-08-03T04:37:50.607Z,18.28
2022-08-03T04:38:50.656Z,18.25
2022-08-03T04:39:50.713Z,18.25
2022-08-03T04:40:50.756Z,18.26
2022-08-03T04:42:07.594Z,18.26
2022-08-03T04:42:51.875Z,18.26
2022-08-03T04:43:50.929Z,18.28
2022-08-03T04:44:50.994Z,18.28
2022-08-03T04:45:51.975Z,18.28
2022-08-03T04:46:52.790Z,18.26
2022-08-03T04:47:51.090Z,18.28
2022-08-03T04:48:51.136Z,18.29
2022-08-03T04:49:51.175Z,18.31
2022-08-03T04:50:51.207Z,18.35
2022-08-03T04:51:50.232Z,18.36
2022-08-03T04:52:50.324Z,18.39
2022-08-03T04:53:50.314Z,18.41
2022-08-03T04:54:51.119Z,18.41
2022-08-03T04:55:50.409Z,18.41
2022-08-03T04:56:50.453Z,18.44
2022-08-03T04:57:50.497Z,18.46
2022-08-03T04:58:50.532Z,18.49
2022-08-03T04:59:50.568Z,18.46
2022-08-03T05:00:50.609Z,18.47
2022-08-03T05:01:50.692Z,18.49
2022-08-03T05:02:50.717Z,18.49
2022-08-03T05:03:50.737Z,18.49
2022-08-03T05:04:50.770Z,18.50
2022-08-03T05:05:50.989Z,18.50
2022-08-03T05:06:51.017Z,18.50
2022-08-03T05:07:51.013Z,18.47
2022-08-03T05:08:50.959Z,18.47
2022-08-03T05:09:57.502Z,18.47
2022-08-03T05:10:50.981Z,18.51
2022-08-03T05:11:50.012Z,18.49
2022-08-03T05:12:50.052Z,18.47
2022-08-03T05:13:50.098Z,18.49
2022-08-03T05:14:50.123Z,18.51
2022-08-03T05:15:50.173Z,18.54
2022-08-03T05:16:50.212Z,18.59
2022-08-03T05:17:50.280Z,18.65
2022-08-03T05:18:50.324Z,18.64
2022-08-03T05:19:50.357Z,18.64
2022-08-03T05:20:50.571Z,18.65
2022-08-03T05:21:52.799Z,18.68
2022-08-03T05:22:50.450Z,18.71
2022-08-03T05:23:50.476Z,18.74
2022-08-03T05:24:50.489Z,18.74
2022-08-03T05:25:50.516Z,18.76
2022-08-03T05:26:50.564Z,18.76
2022-08-03T05:27:50.924Z,18.78
2022-08-03T05:28:51.548Z,18.83
2022-08-03T05:29:50.691Z,18.83
2022-08-03T05:30:50.714Z,18.84
2022-08-03T05:31:49.726Z,18.84
2022-08-03T05:32:49.750Z,18.87
2022-08-03T05:33:49.785Z,18.89
2022-08-03T05:34:49.838Z,18.90
2022-08-03T05:35:55.882Z,18.93
2022-08-03T05:36:50.867Z,18.97
2022-08-03T05:37:54.864Z,18.99
2022-08-03T05:38:50.916Z,19.02
2022-08-03T05:39:49.961Z,19.05
2022-08-03T05:40:57.503Z,19.09
2022-08-03T05:41:51.023Z,19.10
2022-08-03T05:42:50.050Z,19.13
2022-08-03T05:43:50.083Z,19.16
2022-08-03T05:44:50.125Z,19.21
2022-08-03T05:46:11.629Z,19.24
2022-08-03T05:46:51.189Z,19.28
2022-08-03T05:47:50.159Z,19.31
2022-08-03T05:48:50.178Z,19.32
2022-08-03T05:49:50.200Z,19.35
2022-08-03T05:50:50.229Z,19.40
2022-08-03T05:52:00.071Z,19.45
2022-08-03T05:52:51.269Z,19.46
2022-08-03T05:53:50.282Z,19.49
2022-08-03T05:54:56.293Z,19.52
2022-08-03T05:55:55.364Z,19.55
2022-08-03T05:56:51.351Z,19.60
2022-08-03T05:57:50.366Z,19.64
2022-08-03T05:58:49.358Z,19.68
2022-08-03T05:59:53.839Z,19.71
2022-08-03T06:00:50.453Z,19.76
2022-08-03T06:01:49.560Z,19.79
2022-08-03T06:02:49.520Z,19.85
2022-08-03T06:03:49.603Z,19.87
2022-08-03T06:04:49.603Z,19.92
2022-08-03T06:05:54.947Z,19.97
2022-08-03T06:06:50.867Z,19.98
2022-08-03T06:07:49.735Z,20.01
2022-08-03T06:08:49.761Z,20.07
2022-08-03T06:10:33.970Z,20.10
2022-08-03T06:10:50.852Z,20.15
2022-08-03T06:11:49.883Z,20.17
2022-08-03T06:12:49.962Z,20.20
2022-08-03T06:13:49.974Z,20.25
2022-08-03T06:14:50.005Z,20.31
2022-08-03T06:15:50.033Z,20.34
2022-08-03T06:16:50.066Z,20.37
2022-08-03T06:17:50.101Z,20.41
2022-08-03T06:18:49.095Z,20.44
2022-08-03T06:19:49.111Z,20.50
2022-08-03T06:20:49.623Z,20.56
2022-08-03T06:21:49.157Z,20.60
2022-08-03T06:22:51.384Z,20.64
2022-08-03T06:23:54.335Z,20.71
2022-08-03T06:24:53.802Z,20.75
2022-08-03T06:25:49.245Z,20.79
2022-08-03T06:26:49.405Z,20.78
2022-08-03T06:27:49.289Z,20.87
2022-08-03T06:28:52.235Z,20.90
2022-08-03T06:29:49.393Z,20.94
2022-08-03T06:30:50.322Z,21.01
2022-08-03T06:31:49.420Z,21.00
2022-08-03T06:32:51.769Z,21.00
2022-08-03T06:34:33.749Z,21.08
2022-08-03T06:34:50.517Z,21.12
2022-08-03T06:35:49.476Z,21.16
2022-08-03T06:36:49.479Z,21.19
2022-08-03T06:37:50.443Z,21.22
2022-08-03T06:38:49.533Z,21.28
2022-08-03T06:39:49.585Z,21.34
2022-08-03T06:40:49.653Z,21.34
2022-08-03T06:41:49.644Z,21.38
2022-08-03T06:42:49.667Z,21.43
2022-08-03T06:44:03.856Z,21.48
2022-08-03T06:44:49.715Z,21.51
2022-08-03T06:45:48.732Z,21.53
2022-08-03T06:46:48.785Z,21.56
2022-08-03T06:47:48.763Z,21.63
2022-08-03T06:48:48.759Z,21.58
2022-08-03T06:50:12.883Z,21.70
2022-08-03T06:50:49.797Z,21.75
2022-08-03T06:52:05.890Z,21.79
2022-08-03T06:52:49.844Z,21.83
2022-08-03T06:53:48.831Z,21.89
2022-08-03T06:54:48.858Z,21.94
2022-08-03T06:55:53.913Z,21.94
2022-08-03T06:56:49.903Z,22.02
2022-08-03T06:57:48.886Z,22.11
2022-08-03T06:58:48.896Z,22.15
2022-08-03T07:00:06.427Z,22.19
2022-08-03T07:00:49.923Z,22.23
2022-08-03T07:01:49.018Z,22.27
2022-08-03T07:02:48.992Z,22.31
2022-08-03T07:03:52.273Z,22.35
2022-08-03T07:04:49.063Z,22.38
2022-08-03T07:05:49.039Z,22.45
2022-08-03T07:06:49.006Z,22.49
2022-08-03T07:07:49.013Z,22.52
2022-08-03T07:08:52.307Z,22.54
2022-08-03T07:09:56.719Z,22.60
2022-08-03T07:10:50.047Z,22.63
2022-08-03T07:11:49.053Z,22.69
2022-08-03T07:12:56.125Z,22.74
2022-08-03T07:13:50.062Z,22.79
2022-08-03T07:14:49.069Z,22.84
2022-08-03T07:15:55.571Z,22.89
2022-08-03T07:16:50.069Z,22.94
2022-08-03T07:17:49.076Z,22.99
2022-08-03T07:18:49.081Z,23.03
2022-08-03T07:19:49.085Z,23.09
2022-08-03T07:20:49.120Z,23.19
2022-08-03T07:21:49.174Z,23.25
2022-08-03T07:22:49.138Z,23.35
2022-08-03T07:23:49.132Z,23.41
2022-08-03T07:24:49.127Z,23.45
2022-08-03T07:25:49.151Z,23.50
2022-08-03T07:26:49.151Z,23.59
2022-08-03T07:27:51.789Z,23.64
2022-08-03T07:28:49.192Z,23.72
2022-08-03T07:29:48.161Z,23.78
2022-08-03T07:30:49.270Z,23.82
2022-08-03T07:31:48.198Z,23.86
2022-08-03T07:32:50.436Z,23.90
2022-08-03T07:33:48.319Z,23.96
2022-08-03T07:34:48.206Z,23.99
2022-08-03T07:35:48.229Z,24.02
2022-08-03T07:36:48.200Z,24.08
2022-08-03T07:37:54.918Z,24.14
2022-08-03T07:38:49.217Z,24.16
2022-08-03T07:39:48.235Z,24.24
2022-08-03T07:40:48.205Z,24.31
2022-08-03T07:41:48.203Z,24.36
2022-08-03T07:42:48.233Z,24.39
2022-08-03T07:43:48.276Z,24.42
2022-08-03T07:44:48.223Z,24.46
2022-08-03T07:45:48.221Z,24.51
2022-08-03T07:46:48.302Z,24.56
2022-08-03T07:47:53.744Z,24.63
2022-08-03T07:48:49.283Z,24.68
2022-08-03T07:49:48.253Z,24.74
2022-08-03T07:50:48.257Z,24.75
2022-08-03T07:51:48.249Z,24.74
2022-08-03T07:52:48.256Z,24.80
2022-08-03T07:53:48.256Z,24.84
2022-08-03T07:54:48.247Z,24.87
2022-08-03T07:55:48.288Z,24.92
2022-08-03T07:56:48.257Z,24.97
2022-08-03T07:57:48.320Z,24.99
2022-08-03T07:58:48.263Z,25.02
2022-08-03T07:59:57.205Z,25.09
2022-08-03T08:00:49.360Z,25.20
2022-08-03T08:01:48.362Z,25.27
2022-08-03T08:02:48.257Z,25.34
2022-08-03T08:03:52.660Z,25.41
2022-08-03T08:04:49.271Z,25.49
2022-08-03T08:05:48.275Z,25.56
2022-08-03T08:06:48.348Z,25.57
2022-08-03T08:07:51.600Z,25.63
2022-08-03T08:08:48.246Z,25.66
2022-08-03T08:09:48.538Z,25.71
2022-08-03T08:10:58.312Z,25.75
2022-08-03T08:11:49.167Z,25.78
2022-08-03T08:12:48.127Z,25.85
2022-08-03T08:13:48.097Z,25.83
2022-08-03T08:14:48.066Z,25.89
2022-08-03T08:15:48.123Z,25.91
2022-08-03T08:16:48.067Z,26.01
2022-08-03T08:17:48.132Z,26.09
2022-08-03T08:18:48.035Z,26.12
2022-08-03T08:19:51.557Z,26.21
2022-08-03T08:20:48.909Z,26.28
2022-08-03T08:21:53.084Z,26.32
2022-08-03T08:22:52.703Z,26.39
2022-08-03T08:23:56.240Z,26.51
2022-08-03T08:24:48.859Z,26.59
2022-08-03T08:25:47.860Z,26.61
2022-08-03T08:26:47.848Z,26.60
2022-08-03T08:28:29.417Z,26.57
2022-08-03T08:28:49.051Z,26.57
2022-08-03T08:29:55.304Z,26.59
2022-08-03T08:30:48.833Z,26.60
2022-08-03T08:31:47.849Z,26.65
2022-08-03T08:32:47.844Z,26.71
2022-08-03T08:34:03.606Z,26.71
2022-08-03T08:34:48.864Z,26.75
2022-08-03T08:35:47.875Z,26.81
2022-08-03T08:36:47.856Z,26.81
2022-08-03T08:37:50.799Z,26.84
2022-08-03T08:38:47.875Z,26.84
2022-08-03T08:39:47.875Z,26.88
2022-08-03T08:40:47.915Z,26.90
2022-08-03T08:41:50.624Z,26.91
2022-08-03T08:42:58.498Z,26.96
2022-08-03T08:43:48.890Z,26.98
2022-08-03T08:44:47.896Z,27.03
2022-08-03T08:45:48.830Z,27.06
2022-08-03T08:46:47.906Z,27.08
2022-08-03T08:47:51.297Z,27.06
2022-08-03T08:48:47.820Z,27.11
2022-08-03T08:50:08.464Z,27.13
2022-08-03T08:50:54.018Z,27.12
2022-08-03T08:51:59.259Z,27.12
2022-08-03T08:52:48.833Z,27.13
2022-08-03T08:53:47.808Z,27.15
2022-08-03T08:54:47.828Z,27.18
2022-08-03T08:55:56.626Z,27.20
2022-08-03T08:56:48.808Z,27.21
2022-08-03T08:57:48.732Z,27.24
2022-08-03T08:58:47.841Z,27.27
2022-08-03T08:59:49.702Z,27.33
2022-08-03T09:00:47.786Z,27.40
2022-08-03T09:01:49.225Z,27.45
2022-08-03T09:02:47.762Z,27.48
2022-08-03T09:03:47.753Z,27.52
2022-08-03T09:04:47.851Z,27.58
2022-08-03T09:05:55.867Z,27.49
2022-08-03T09:07:10.469Z,27.55
2022-08-03T09:07:48.651Z,27.59
2022-08-03T09:08:47.653Z,27.61
2022-08-03T09:10:11.012Z,27.63
2022-08-03T09:10:48.643Z,27.65
2022-08-03T09:12:00.919Z,27.69
2022-08-03T09:12:48.565Z,27.68
2022-08-03T09:13:47.600Z,27.65
2022-08-03T09:15:07.446Z,27.63
2022-08-03T09:15:52.733Z,27.65
2022-08-03T09:16:48.603Z,27.68
2022-08-03T09:17:50.859Z,27.69
2022-08-03T09:18:47.526Z,27.71
2022-08-03T09:20:03.210Z,27.80
2022-08-03T09:20:48.563Z,27.88
2022-08-03T09:21:48.414Z,27.91
2022-08-03T09:22:47.495Z,27.96
2022-08-03T09:24:01.370Z,28.01
2022-08-03T09:25:03.153Z,28.05
2022-08-03T09:25:48.478Z,28.05
2022-08-03T09:26:47.423Z,28.05
2022-08-03T09:27:47.421Z,28.08
2022-08-03T09:28:52.677Z,28.09
2022-08-03T09:29:48.345Z,28.09
2022-08-03T09:30:47.311Z,28.13
2022-08-03T09:31:47.376Z,28.13
2022-08-03T09:32:47.268Z,28.11
2022-08-03T09:33:47.235Z,28.17
2022-08-03T09:34:47.616Z,28.14
2022-08-03T09:35:55.345Z,28.17
2022-08-03T09:36:48.235Z,28.18
2022-08-03T09:38:13.907Z,28.24
2022-08-03T09:38:48.167Z,28.32
2022-08-03T09:39:47.141Z,28.36
2022-08-03T09:40:47.109Z,28.40
2022-08-03T09:41:47.093Z,28.43
2022-08-03T09:42:47.084Z,28.50
2022-08-03T09:43:47.066Z,28.57
2022-08-03T09:44:48.000Z,28.58
2022-08-03T09:45:47.052Z,28.61
2022-08-03T09:46:50.012Z,28.64
2022-08-03T09:47:46.993Z,28.65
2022-08-03T09:48:46.974Z,28.67
2022-08-03T09:49:46.948Z,28.74
2022-08-03T09:50:58.816Z,28.74
2022-08-03T09:52:33.906Z,28.76
2022-08-03T09:52:49.780Z,28.77
2022-08-03T09:53:57.012Z,28.80
2022-08-03T09:54:47.846Z,28.85
2022-08-03T09:56:34.811Z,28.91
2022-08-03T09:56:47.795Z,28.98
2022-08-03T09:57:46.817Z,28.98
2022-08-03T09:58:46.794Z,28.97
2022-08-03T09:59:46.768Z,28.95
2022-08-03T10:00:46.783Z,29.02
2022-08-03T10:01:46.871Z,29.11
2022-08-03T10:02:46.787Z,29.17
2022-08-03T10:04:03.219Z,29.20
2022-08-03T10:04:47.779Z,29.23
2022-08-03T10:05:46.767Z,29.23
2022-08-03T10:06:46.751Z,29.20
2022-08-03T10:07:46.736Z,29.21
2022-08-03T10:08:46.744Z,29.23
2022-08-03T10:09:47.405Z,29.33
2022-08-03T10:10:46.724Z,29.30
2022-08-03T10:11:46.716Z,29.37
2022-08-03T10:12:46.716Z,29.41
2022-08-03T10:13:46.689Z,29.42
2022-08-03T10:14:46.677Z,29.44
2022-08-03T10:16:22.448Z,29.44
2022-08-03T10:16:47.672Z,29.42
2022-08-03T10:17:46.659Z,29.44
2022-08-03T10:18:46.677Z,29.45
2022-08-03T10:19:46.679Z,29.44
2022-08-03T10:20:46.650Z,29.42
2022-08-03T10:21:46.695Z,29.44
2022-08-03T10:22:46.652Z,29.52
2022-08-03T10:23:46.669Z,29.58
2022-08-03T10:24:46.651Z,29.67
2022-08-03T10:25:46.637Z,29.70
2022-08-03T10:26:49.909Z,29.71
2022-08-03T10:27:46.656Z,29.69
2022-08-03T10:28:46.656Z,29.63
2022-08-03T10:29:46.655Z,29.60
2022-08-03T10:30:46.794Z,29.60
2022-08-03T10:31:54.453Z,29.60
2022-08-03T10:32:47.643Z,29.64
2022-08-03T10:33:50.773Z,29.70
2022-08-03T10:34:47.592Z,29.67
2022-08-03T10:35:46.556Z,29.71
2022-08-03T10:36:46.557Z,29.82
2022-08-03T10:37:56.505Z,29.92
2022-08-03T10:38:47.575Z,30.01
2022-08-03T10:39:46.555Z,30.10
2022-08-03T10:40:49.607Z,30.15
2022-08-03T10:41:46.543Z,30.22
2022-08-03T10:42:46.504Z,30.30
2022-08-03T10:43:46.487Z,30.34
2022-08-03T10:44:46.496Z,30.45
2022-08-03T10:45:47.409Z,30.49
2022-08-03T10:46:46.416Z,30.63
2022-08-03T10:47:46.365Z,30.76
2022-08-03T10:48:46.338Z,30.96
2022-08-03T10:49:46.352Z,31.00
2022-08-03T10:50:46.298Z,31.09
2022-08-03T10:51:46.216Z,31.09
2022-08-03T10:52:49.143Z,31.05
2022-08-03T10:53:54.393Z,31.07
2022-08-03T10:54:47.073Z,30.97
2022-08-03T10:55:46.041Z,30.88
2022-08-03T10:56:49.790Z,30.72
2022-08-03T10:57:47.441Z,30.81
2022-08-03T10:58:53.212Z,30.96
2022-08-03T10:59:46.935Z,31.09
2022-08-03T11:00:45.935Z,31.22
2022-08-03T11:02:00.079Z,31.35
2022-08-03T11:02:46.818Z,31.50
2022-08-03T11:03:45.756Z,31.56
2022-08-03T11:04:45.716Z,31.50
2022-08-03T11:05:45.682Z,31.42
2022-08-03T11:06:45.663Z,31.37
2022-08-03T11:07:45.616Z,31.28
2022-08-03T11:08:46.607Z,31.22
2022-08-03T11:09:45.550Z,31.18
2022-08-03T11:10:45.507Z,31.12
2022-08-03T11:11:45.472Z,31.03
2022-08-03T11:12:45.446Z,30.90
2022-08-03T11:13:45.399Z,30.82
2022-08-03T11:14:45.417Z,30.79
2022-08-03T11:15:45.345Z,30.88
2022-08-03T11:16:45.315Z,30.94
2022-08-03T11:17:46.660Z,30.98
2022-08-03T11:18:46.284Z,31.03
2022-08-03T11:19:56.742Z,31.16
2022-08-03T11:20:46.300Z,31.30
2022-08-03T11:21:45.268Z,31.42
2022-08-03T11:22:45.196Z,31.54
2022-08-03T11:24:04.746Z,31.67
2022-08-03T11:24:46.128Z,31.74
2022-08-03T11:25:54.952Z,31.88
2022-08-03T11:26:46.115Z,31.99
2022-08-03T11:27:46.093Z,32.09
2022-08-03T11:28:46.090Z,32.12
2022-08-03T11:29:46.062Z,32.17
2022-08-03T11:30:46.031Z,32.28
2022-08-03T11:31:50.763Z,32.32
2022-08-03T11:32:48.652Z,32.34
2022-08-03T11:33:46.906Z,32.34
2022-08-03T11:34:45.921Z,32.29
2022-08-03T11:35:45.893Z,32.35
2022-08-03T11:36:45.934Z,32.22
2022-08-03T11:38:01.944Z,31.98
2022-08-03T11:38:46.851Z,31.68
2022-08-03T11:39:45.712Z,31.52
2022-08-03T11:40:45.734Z,31.53
2022-08-03T11:41:45.694Z,31.65
2022-08-03T11:42:46.657Z,31.85
2022-08-03T11:43:45.602Z,32.06
2022-08-03T11:44:47.450Z,32.25
2022-08-03T11:45:45.578Z,32.36
2022-08-03T11:46:45.637Z,32.49
2022-08-03T11:47:50.764Z,32.54
2022-08-03T11:48:46.627Z,32.63
2022-08-03T11:49:45.518Z,32.76
2022-08-03T11:50:45.614Z,32.81
2022-08-03T11:51:45.480Z,32.91
2022-08-03T11:52:45.469Z,32.96
2022-08-03T11:53:45.464Z,32.87
2022-08-03T11:54:45.484Z,32.80
2022-08-03T11:55:45.450Z,32.80
2022-08-03T11:56:45.516Z,32.76
2022-08-03T11:58:58.316Z,32.41
2022-08-03T11:59:02.642Z,32.56
2022-08-03T11:59:46.421Z,32.32
2022-08-03T12:00:45.363Z,32.25
2022-08-03T12:01:45.341Z,32.24
2022-08-03T12:02:45.547Z,32.39
2022-08-03T12:03:46.044Z,32.62
2022-08-03T12:04:47.372Z,32.81
2022-08-03T12:05:51.104Z,33.00
2022-08-03T12:06:47.397Z,33.14
2022-08-03T12:08:04.759Z,33.37
2022-08-03T12:08:46.170Z,33.55
2022-08-03T12:09:45.088Z,33.77
2022-08-03T12:10:45.080Z,33.94
2022-08-03T12:11:50.906Z,34.08
2022-08-03T12:12:46.703Z,34.14
2022-08-03T12:14:35.673Z,34.21
2022-08-03T12:14:50.403Z,34.30
2022-08-03T12:15:45.999Z,34.16
2022-08-03T12:16:45.032Z,33.99
2022-08-03T12:17:44.954Z,33.78
2022-08-03T12:18:44.939Z,33.57
2022-08-03T12:19:44.914Z,33.47
2022-08-03T12:20:45.124Z,33.50
2022-08-03T12:21:44.922Z,33.55
2022-08-03T12:22:45.904Z,33.66
2022-08-03T12:23:44.902Z,33.71
2022-08-03T12:24:46.822Z,33.71
2022-08-03T12:25:44.879Z,33.66
2022-08-03T12:26:44.924Z,33.44
2022-08-03T12:27:45.849Z,33.35
2022-08-03T12:28:49.501Z,33.44
2022-08-03T12:29:58.787Z,33.60
2022-08-03T12:30:46.452Z,33.72
2022-08-03T12:31:44.807Z,33.82
2022-08-03T12:32:44.796Z,34.00
2022-08-03T12:33:44.765Z,34.18
2022-08-03T12:34:47.253Z,34.33
2022-08-03T12:35:52.312Z,34.52
2022-08-03T12:36:45.686Z,34.65
2022-08-03T12:37:44.667Z,34.80
2022-08-03T12:38:44.669Z,34.90
2022-08-03T12:40:03.577Z,35.02
2022-08-03T12:40:45.648Z,35.20
2022-08-03T12:41:44.623Z,35.25
2022-08-03T12:42:44.602Z,35.31
2022-08-03T12:43:44.563Z,35.40
2022-08-03T12:44:44.670Z,35.52
2022-08-03T12:45:45.542Z,35.46
2022-08-03T12:46:48.109Z,35.47
2022-08-03T12:47:44.493Z,35.55
2022-08-03T12:48:44.466Z,35.59
2022-08-03T12:49:44.492Z,35.54
2022-08-03T12:50:44.480Z,35.59
2022-08-03T12:51:44.483Z,35.65
2022-08-03T12:52:44.466Z,35.56